Terminal Aerodrome Forecast
Issued by NWS

Home | Current Version | Previous Version | Text Only | Print | Product List | Glossary On
Versions: 1 2 3 4 5 6 7 8 9 10 11 12 13 14 15 16 17 18 19 20 21 22 23 24
000
FTUS42 KJAX 241700 RRA
TAFVQQ
TAF
KVQQ 241741Z 2418/2518 13008KT P6SM BKN050
     FM250300 19005KT P6SM SCT060 SCT250
     FM250500 VRB03KT 4SM BR SCT250
     FM250800 00000KT 2SM BR SCT002 BKN250
     FM251000 00000KT 1/4SM FG OVC001
     FM251330 24004KT 3SM BR BKN004
     FM251430 24008KT P6SM BKN015 BKN250=

USA.gov is the U.S. government's official web portal to all federal, state and local government web resources and services.